sensor_id;sensor_type;location;lat;lon;timestamp;pressure;altitude;pressure_sealevel;temperature;humidity
12536;BME280;6334;48.696;2.114;2023-06-22T00:00:09;100015.19;;;22.91;60.24
12536;BME280;6334;48.696;2.114;2023-06-22T00:02:44;100010.12;;;22.78;61.19
12536;BME280;6334;48.696;2.114;2023-06-22T00:05:15;100007.92;;;22.97;60.34
12536;BME280;6334;48.696;2.114;2023-06-22T00:07:45;100004.16;;;22.94;59.71
12536;BME280;6334;48.696;2.114;2023-06-22T00:10:16;100000.66;;;23.22;59.24
12536;BME280;6334;48.696;2.114;2023-06-22T00:12:47;99989.59;;;23.04;60.17
12536;BME280;6334;48.696;2.114;2023-06-22T00:15:17;99990.86;;;22.97;59.93
12536;BME280;6334;48.696;2.114;2023-06-22T00:17:47;99981.52;;;22.72;60.65
12536;BME280;6334;48.696;2.114;2023-06-22T00:20:18;99985.52;;;22.83;60.53
12536;BME280;6334;48.696;2.114;2023-06-22T00:25:23;99977.27;;;22.90;59.34
12536;BME280;6334;48.696;2.114;2023-06-22T00:27:53;99980.78;;;23.13;59.21
12536;BME280;6334;48.696;2.114;2023-06-22T00:30:23;99976.53;;;22.76;60.83
12536;BME280;6334;48.696;2.114;2023-06-22T00:35:29;99983.21;;;22.60;60.34
12536;BME280;6334;48.696;2.114;2023-06-22T00:37:59;99973.72;;;22.80;60.60
12536;BME280;6334;48.696;2.114;2023-06-22T00:40:31;99970.69;;;22.98;60.30
12536;BME280;6334;48.696;2.114;2023-06-22T00:45:34;99963.61;;;22.85;60.17
12536;BME280;6334;48.696;2.114;2023-06-22T00:48:05;99954.86;;;22.71;60.57
12536;BME280;6334;48.696;2.114;2023-06-22T00:50:35;99956.67;;;22.85;59.96
12536;BME280;6334;48.696;2.114;2023-06-22T00:53:07;99952.57;;;22.57;60.81
12536;BME280;6334;48.696;2.114;2023-06-22T00:55:41;99953.09;;;22.78;60.96
12536;BME280;6334;48.696;2.114;2023-06-22T00:58:07;99947.81;;;22.55;61.83
12536;BME280;6334;48.696;2.114;2023-06-22T01:00:39;99942.23;;;22.74;61.17
12536;BME280;6334;48.696;2.114;2023-06-22T01:03:08;99935.48;;;22.42;62.33
12536;BME280;6334;48.696;2.114;2023-06-22T01:05:39;99935.97;;;22.62;61.21
12536;BME280;6334;48.696;2.114;2023-06-22T01:08:43;99930.48;;;22.64;61.19
12536;BME280;6334;48.696;2.114;2023-06-22T01:11:22;99928.77;;;22.47;61.51
12536;BME280;6334;48.696;2.114;2023-06-22T01:16:24;99920.05;;;22.31;62.14
12536;BME280;6334;48.696;2.114;2023-06-22T01:18:55;99918.59;;;22.47;61.48
12536;BME280;6334;48.696;2.114;2023-06-22T01:21:25;99919.91;;;22.37;62.15
12536;BME280;6334;48.696;2.114;2023-06-22T01:29:02;99909.47;;;22.24;61.36
12536;BME280;6334;48.696;2.114;2023-06-22T01:31:32;99909.58;;;22.45;61.50
12536;BME280;6334;48.696;2.114;2023-06-22T01:34:03;99901.67;;;22.41;61.04
12536;BME280;6334;48.696;2.114;2023-06-22T01:36:33;99903.72;;;22.36;61.51
12536;BME280;6334;48.696;2.114;2023-06-22T01:39:03;99907.05;;;22.61;60.74
12536;BME280;6334;48.696;2.114;2023-06-22T01:41:34;99899.72;;;22.33;61.44
12536;BME280;6334;48.696;2.114;2023-06-22T01:44:05;99903.32;;;22.42;61.37
12536;BME280;6334;48.696;2.114;2023-06-22T01:46:35;99901.66;;;22.50;60.84
12536;BME280;6334;48.696;2.114;2023-06-22T01:49:05;99897.37;;;22.45;60.50
12536;BME280;6334;48.696;2.114;2023-06-22T01:51:36;99898.75;;;22.63;59.75
12536;BME280;6334;48.696;2.114;2023-06-22T01:54:06;99890.95;;;22.18;61.65
12536;BME280;6334;48.696;2.114;2023-06-22T01:56:36;99892.91;;;22.35;61.09
12536;BME280;6334;48.696;2.114;2023-06-22T01:59:25;99892.83;;;22.05;62.23
12536;BME280;6334;48.696;2.114;2023-06-22T02:01:54;99892.70;;;21.87;62.60
12536;BME280;6334;48.696;2.114;2023-06-22T02:06:56;99893.29;;;22.04;61.43
12536;BME280;6334;48.696;2.114;2023-06-22T02:09:27;99896.74;;;22.07;61.62
12536;BME280;6334;48.696;2.114;2023-06-22T02:11:56;99892.58;;;22.32;60.84
12536;BME280;6334;48.696;2.114;2023-06-22T02:14:27;99890.23;;;22.14;61.03
12536;BME280;6334;48.696;2.114;2023-06-22T02:16:57;99892.48;;;22.11;61.49
12536;BME280;6334;48.696;2.114;2023-06-22T02:19:27;99886.53;;;21.92;62.32
12536;BME280;6334;48.696;2.114;2023-06-22T02:21:58;99880.98;;;22.04;62.23
12536;BME280;6334;48.696;2.114;2023-06-22T02:24:28;99873.70;;;22.36;60.80
12536;BME280;6334;48.696;2.114;2023-06-22T02:26:58;99872.53;;;21.95;62.23
12536;BME280;6334;48.696;2.114;2023-06-22T02:29:28;99863.34;;;21.96;61.39
12536;BME280;6334;48.696;2.114;2023-06-22T02:31:59;99864.33;;;21.67;62.83
12536;BME280;6334;48.696;2.114;2023-06-22T02:37:03;99872.77;;;22.09;60.69
12536;BME280;6334;48.696;2.114;2023-06-22T02:39:34;99873.34;;;22.12;60.53
12536;BME280;6334;48.696;2.114;2023-06-22T02:42:04;99875.55;;;22.05;61.26
12536;BME280;6334;48.696;2.114;2023-06-22T02:47:08;99879.45;;;22.03;60.77
12536;BME280;6334;48.696;2.114;2023-06-22T02:49:39;99877.41;;;21.61;62.09
12536;BME280;6334;48.696;2.114;2023-06-22T02:52:09;99874.21;;;21.91;61.26
12536;BME280;6334;48.696;2.114;2023-06-22T02:57:14;99874.98;;;21.79;61.58
12536;BME280;6334;48.696;2.114;2023-06-22T02:59:44;99868.15;;;22.03;60.33
12536;BME280;6334;48.696;2.114;2023-06-22T03:02:15;99863.36;;;22.04;60.89
12536;BME280;6334;48.696;2.114;2023-06-22T03:04:45;99858.85;;;21.80;61.37
12536;BME280;6334;48.696;2.114;2023-06-22T03:07:16;99849.89;;;21.96;61.43
12536;BME280;6334;48.696;2.114;2023-06-22T03:09:46;99843.91;;;21.90;60.99
12536;BME280;6334;48.696;2.114;2023-06-22T03:12:17;99835.38;;;21.72;61.44
12536;BME280;6334;48.696;2.114;2023-06-22T03:14:47;99828.98;;;21.84;60.85
12536;BME280;6334;48.696;2.114;2023-06-22T03:17:17;99833.06;;;21.65;61.14
12536;BME280;6334;48.696;2.114;2023-06-22T03:19:47;99840.23;;;21.71;61.13
12536;BME280;6334;48.696;2.114;2023-06-22T03:22:19;99844.62;;;21.64;61.28
12536;BME280;6334;48.696;2.114;2023-06-22T03:24:50;99848.81;;;21.57;61.64
12536;BME280;6334;48.696;2.114;2023-06-22T03:27:20;99843.55;;;21.58;61.21
12536;BME280;6334;48.696;2.114;2023-06-22T03:29:50;99839.95;;;21.74;61.22
12536;BME280;6334;48.696;2.114;2023-06-22T03:32:21;99836.08;;;21.54;61.64
12536;BME280;6334;48.696;2.114;2023-06-22T03:34:52;99829.50;;;21.71;60.90
12536;BME280;6334;48.696;2.114;2023-06-22T03:37:22;99834.68;;;21.76;61.08
12536;BME280;6334;48.696;2.114;2023-06-22T03:39:53;99834.92;;;21.52;61.25
12536;BME280;6334;48.696;2.114;2023-06-22T03:42:23;99840.01;;;21.93;59.86
12536;BME280;6334;48.696;2.114;2023-06-22T03:44:54;99841.98;;;21.43;61.34
12536;BME280;6334;48.696;2.114;2023-06-22T03:47:24;99838.31;;;21.71;60.66
12536;BME280;6334;48.696;2.114;2023-06-22T03:49:55;99824.56;;;21.70;60.61
12536;BME280;6334;48.696;2.114;2023-06-22T03:54:59;99832.56;;;21.92;60.28
12536;BME280;6334;48.696;2.114;2023-06-22T03:57:29;99833.37;;;21.90;60.77
12536;BME280;6334;48.696;2.114;2023-06-22T04:00:00;99837.05;;;21.76;61.21
12536;BME280;6334;48.696;2.114;2023-06-22T04:05:04;99831.27;;;21.72;61.51
12536;BME280;6334;48.696;2.114;2023-06-22T04:07:35;99828.08;;;21.70;61.17
12536;BME280;6334;48.696;2.114;2023-06-22T04:10:05;99825.06;;;21.55;61.51
12536;BME280;6334;48.696;2.114;2023-06-22T04:15:10;99834.34;;;21.88;60.48
12536;BME280;6334;48.696;2.114;2023-06-22T04:17:41;99837.95;;;21.64;62.70
12536;BME280;6334;48.696;2.114;2023-06-22T04:20:11;99845.47;;;21.82;62.57
12536;BME280;6334;48.696;2.114;2023-06-22T04:25:16;99863.02;;;21.67;62.72
12536;BME280;6334;48.696;2.114;2023-06-22T04:27:47;99861.58;;;21.86;62.73
12536;BME280;6334;48.696;2.114;2023-06-22T04:30:17;99864.01;;;21.63;62.41
12536;BME280;6334;48.696;2.114;2023-06-22T04:32:50;99697.88;;;20.64;63.36
12536;BME280;6334;48.696;2.114;2023-06-22T04:35:25;99864.53;;;21.37;65.03
12536;BME280;6334;48.696;2.114;2023-06-22T04:37:57;99864.04;;;21.32;65.83
12536;BME280;6334;48.696;2.114;2023-06-22T04:40:26;99858.55;;;21.38;64.85
12536;BME280;6334;48.696;2.114;2023-06-22T04:45:31;99859.02;;;20.68;68.30
12536;BME280;6334;48.696;2.114;2023-06-22T04:48:01;99854.84;;;21.43;65.74
12536;BME280;6334;48.696;2.114;2023-06-22T04:50:37;99859.72;;;21.51;65.05
12536;BME280;6334;48.696;2.114;2023-06-22T04:55:39;99859.20;;;21.25;68.30
12536;BME280;6334;48.696;2.114;2023-06-22T04:58:09;99864.89;;;21.19;69.17
12536;BME280;6334;48.696;2.114;2023-06-22T05:00:40;99859.94;;;21.39;67.93
12536;BME280;6334;48.696;2.114;2023-06-22T05:03:10;99859.13;;;21.58;66.07
12536;BME280;6334;48.696;2.114;2023-06-22T05:05:41;99855.68;;;21.00;68.53
12536;BME280;6334;48.696;2.114;2023-06-22T05:08:13;99851.14;;;21.07;69.45
12536;BME280;6334;48.696;2.114;2023-06-22T05:10:42;99845.98;;;21.24;68.26
12536;BME280;6334;48.696;2.114;2023-06-22T05:13:12;99847.87;;;21.42;68.43
12536;BME280;6334;48.696;2.114;2023-06-22T05:15:43;99842.95;;;21.35;68.68
12536;BME280;6334;48.696;2.114;2023-06-22T05:18:14;99839.27;;;21.13;69.19
12536;BME280;6334;48.696;2.114;2023-06-22T05:20:44;99831.69;;;21.07;70.67
12536;BME280;6334;48.696;2.114;2023-06-22T05:23:15;99830.09;;;20.62;71.75
12536;BME280;6334;48.696;2.114;2023-06-22T05:25:44;99822.03;;;21.09;70.97
12536;BME280;6334;48.696;2.114;2023-06-22T05:28:15;99823.38;;;20.90;70.51
12536;BME280;6334;48.696;2.114;2023-06-22T05:30:45;99820.48;;;20.97;69.75
12536;BME280;6334;48.696;2.114;2023-06-22T05:33:17;99821.75;;;21.58;67.05
12536;BME280;6334;48.696;2.114;2023-06-22T05:35:47;99827.30;;;21.47;67.70
12536;BME280;6334;48.696;2.114;2023-06-22T05:38:18;99828.38;;;21.40;68.15
12536;BME280;6334;48.696;2.114;2023-06-22T05:40:48;99831.31;;;21.37;68.12
12536;BME280;6334;48.696;2.114;2023-06-22T05:43:19;99833.06;;;21.65;66.99
12536;BME280;6334;48.696;2.114;2023-06-22T05:45:49;99830.00;;;21.59;67.84
12536;BME280;6334;48.696;2.114;2023-06-22T05:48:19;99828.78;;;21.86;67.44
12536;BME280;6334;48.696;2.114;2023-06-22T05:50:50;99827.20;;;21.27;68.55
12536;BME280;6334;48.696;2.114;2023-06-22T05:53:20;99822.02;;;21.00;70.20
12536;BME280;6334;48.696;2.114;2023-06-22T05:55:49;99824.14;;;20.94;70.05
12536;BME280;6334;48.696;2.114;2023-06-22T05:58:19;99822.17;;;20.82;70.54
12536;BME280;6334;48.696;2.114;2023-06-22T06:00:48;99824.16;;;20.86;71.10
12536;BME280;6334;48.696;2.114;2023-06-22T06:03:19;99820.59;;;20.72;70.88
12536;BME280;6334;48.696;2.114;2023-06-22T06:05:49;99818.58;;;20.28;73.41
12536;BME280;6334;48.696;2.114;2023-06-22T06:08:20;99813.22;;;20.67;71.77
12536;BME280;6334;48.696;2.114;2023-06-22T06:10:49;99813.67;;;20.72;70.71
12536;BME280;6334;48.696;2.114;2023-06-22T06:13:19;99813.75;;;20.45;72.78
12536;BME280;6334;48.696;2.114;2023-06-22T06:15:49;99818.57;;;20.72;72.57
12536;BME280;6334;48.696;2.114;2023-06-22T06:18:20;99820.58;;;20.31;73.96
12536;BME280;6334;48.696;2.114;2023-06-22T06:20:50;99824.40;;;20.67;72.85
12536;BME280;6334;48.696;2.114;2023-06-22T06:23:20;99829.66;;;20.84;72.41
12536;BME280;6334;48.696;2.114;2023-06-22T06:25:49;99842.54;;;20.50;73.66
12536;BME280;6334;48.696;2.114;2023-06-22T06:28:21;99836.09;;;20.68;73.15
12536;BME280;6334;48.696;2.114;2023-06-22T06:30:49;99838.85;;;20.46;75.07
12536;BME280;6334;48.696;2.114;2023-06-22T06:33:20;99838.02;;;20.26;75.49
12536;BME280;6334;48.696;2.114;2023-06-22T06:35:50;99827.56;;;20.19;74.55
12536;BME280;6334;48.696;2.114;2023-06-22T06:38:21;99826.56;;;20.64;72.29
12536;BME280;6334;48.696;2.114;2023-06-22T06:40:51;99824.30;;;20.41;73.52
12536;BME280;6334;48.696;2.114;2023-06-22T06:43:22;99817.66;;;20.41;74.63
12536;BME280;6334;48.696;2.114;2023-06-22T06:45:52;99811.32;;;20.59;73.95
12536;BME280;6334;48.696;2.114;2023-06-22T06:48:23;99804.75;;;20.33;73.45
12536;BME280;6334;48.696;2.114;2023-06-22T06:50:52;99798.80;;;20.07;75.32
12536;BME280;6334;48.696;2.114;2023-06-22T06:53:23;99788.84;;;19.85;76.16
12536;BME280;6334;48.696;2.114;2023-06-22T06:55:52;99785.67;;;19.90;74.90
12536;BME280;6334;48.696;2.114;2023-06-22T06:58:22;99782.41;;;20.13;73.94
12536;BME280;6334;48.696;2.114;2023-06-22T07:00:52;99786.67;;;19.63;77.96
12536;BME280;6334;48.696;2.114;2023-06-22T07:03:23;99787.75;;;19.71;77.28
12536;BME280;6334;48.696;2.114;2023-06-22T07:05:53;99788.70;;;20.01;75.00
12536;BME280;6334;48.696;2.114;2023-06-22T07:08:23;99786.33;;;19.87;76.57
12536;BME280;6334;48.696;2.114;2023-06-22T07:10:52;99789.94;;;19.88;77.44
12536;BME280;6334;48.696;2.114;2023-06-22T07:13:23;99787.37;;;20.25;75.87
12536;BME280;6334;48.696;2.114;2023-06-22T07:15:53;99789.15;;;19.90;75.80
12536;BME280;6334;48.696;2.114;2023-06-22T07:18:24;99793.17;;;19.79;75.93
12536;BME280;6334;48.696;2.114;2023-06-22T07:20:54;99799.05;;;19.74;76.66
12536;BME280;6334;48.696;2.114;2023-06-22T07:23:25;99797.48;;;19.96;76.97
12536;BME280;6334;48.696;2.114;2023-06-22T07:25:55;99803.80;;;19.87;76.20
12536;BME280;6334;48.696;2.114;2023-06-22T07:28:26;99803.32;;;19.76;77.85
12536;BME280;6334;48.696;2.114;2023-06-22T07:30:56;99810.30;;;19.58;79.02
12536;BME280;6334;48.696;2.114;2023-06-22T07:33:27;99807.86;;;19.61;77.87
12536;BME280;6334;48.696;2.114;2023-06-22T07:35:59;99811.45;;;19.64;76.82
12536;BME280;6334;48.696;2.114;2023-06-22T07:38:29;99804.70;;;19.99;77.05
12536;BME280;6334;48.696;2.114;2023-06-22T07:41:00;99811.45;;;19.81;78.28
12536;BME280;6334;48.696;2.114;2023-06-22T07:43:30;99806.41;;;19.78;77.31
12536;BME280;6334;48.696;2.114;2023-06-22T07:46:00;99811.47;;;19.74;78.83
12536;BME280;6334;48.696;2.114;2023-06-22T07:48:30;99817.04;;;19.46;77.96
12536;BME280;6334;48.696;2.114;2023-06-22T07:51:00;99810.45;;;19.38;80.08
12536;BME280;6334;48.696;2.114;2023-06-22T07:53:30;99816.94;;;19.38;78.10
12536;BME280;6334;48.696;2.114;2023-06-22T07:56:00;99816.23;;;19.73;78.01
12536;BME280;6334;48.696;2.114;2023-06-22T07:58:31;99820.98;;;19.08;81.18
12536;BME280;6334;48.696;2.114;2023-06-22T08:01:01;99826.70;;;19.51;79.04
12536;BME280;6334;48.696;2.114;2023-06-22T08:03:32;99833.41;;;19.36;78.34
12536;BME280;6334;48.696;2.114;2023-06-22T08:06:02;99831.22;;;19.74;78.10
12536;BME280;6334;48.696;2.114;2023-06-22T08:08:32;99836.89;;;19.43;78.94
12536;BME280;6334;48.696;2.114;2023-06-22T08:11:03;99831.46;;;19.12;79.67
12536;BME280;6334;48.696;2.114;2023-06-22T08:13:33;99835.19;;;19.40;78.30
12536;BME280;6334;48.696;2.114;2023-06-22T08:16:04;99836.36;;;19.41;78.95
12536;BME280;6334;48.696;2.114;2023-06-22T08:18:34;99835.21;;;19.10;79.90
12536;BME280;6334;48.696;2.114;2023-06-22T08:21:05;99829.03;;;19.32;79.93
12536;BME280;6334;48.696;2.114;2023-06-22T08:23:35;99836.98;;;19.35;79.57
12536;BME280;6334;48.696;2.114;2023-06-22T08:26:05;99832.21;;;19.21;78.98
12536;BME280;6334;48.696;2.114;2023-06-22T08:28:35;99828.70;;;18.98;80.12
12536;BME280;6334;48.696;2.114;2023-06-22T08:31:06;99824.97;;;19.26;78.72
12536;BME280;6334;48.696;2.114;2023-06-22T08:33:35;99824.81;;;19.01;80.77
12536;BME280;6334;48.696;2.114;2023-06-22T08:36:06;99825.22;;;19.42;79.65
12536;BME280;6334;48.696;2.114;2023-06-22T08:38:36;99826.04;;;19.08;80.25
12536;BME280;6334;48.696;2.114;2023-06-22T08:41:07;99825.37;;;19.17;79.29
12536;BME280;6334;48.696;2.114;2023-06-22T08:43:37;99821.85;;;19.40;79.71
12536;BME280;6334;48.696;2.114;2023-06-22T08:46:07;99823.63;;;19.26;79.35
12536;BME280;6334;48.696;2.114;2023-06-22T08:48:38;99822.99;;;19.23;80.75
12536;BME280;6334;48.696;2.114;2023-06-22T08:51:08;99825.54;;;19.18;79.95
12536;BME280;6334;48.696;2.114;2023-06-22T08:53:39;99824.42;;;19.09;80.46
12536;BME280;6334;48.696;2.114;2023-06-22T08:56:09;99825.09;;;19.08;81.55
12536;BME280;6334;48.696;2.114;2023-06-22T08:58:40;99825.36;;;19.40;80.08
12536;BME280;6334;48.696;2.114;2023-06-22T09:01:10;99826.06;;;19.14;79.21
12536;BME280;6334;48.696;2.114;2023-06-22T09:03:41;99822.68;;;19.03;80.36
12536;BME280;6334;48.696;2.114;2023-06-22T09:06:11;99818.61;;;19.33;80.26
12536;BME280;6334;48.696;2.114;2023-06-22T09:08:42;99832.77;;;19.29;81.19
12536;BME280;6334;48.696;2.114;2023-06-22T09:11:12;99835.57;;;18.99;82.27
12536;BME280;6334;48.696;2.114;2023-06-22T09:13:43;99841.57;;;19.16;80.66
12536;BME280;6334;48.696;2.114;2023-06-22T09:16:13;99838.97;;;19.38;79.98
12536;BME280;6334;48.696;2.114;2023-06-22T09:18:46;99840.76;;;19.17;80.34
12536;BME280;6334;48.696;2.114;2023-06-22T09:21:14;99844.03;;;19.39;79.54
12536;BME280;6334;48.696;2.114;2023-06-22T09:23:43;99844.05;;;19.09;81.17
12536;BME280;6334;48.696;2.114;2023-06-22T09:26:14;99844.60;;;19.18;81.14
12536;BME280;6334;48.696;2.114;2023-06-22T09:28:44;99849.88;;;19.26;80.36
12536;BME280;6334;48.696;2.114;2023-06-22T09:31:15;99851.88;;;19.34;79.31
12536;BME280;6334;48.696;2.114;2023-06-22T09:33:45;99857.80;;;19.36;80.04
12536;BME280;6334;48.696;2.114;2023-06-22T09:36:16;99861.83;;;19.54;79.09
12536;BME280;6334;48.696;2.114;2023-06-22T09:38:47;99860.20;;;19.27;81.61
12536;BME280;6334;48.696;2.114;2023-06-22T09:41:17;99872.37;;;19.51;79.25
12536;BME280;6334;48.696;2.114;2023-06-22T09:43:47;99874.67;;;19.65;79.29
12536;BME280;6334;48.696;2.114;2023-06-22T09:46:20;99887.55;;;19.62;79.80
12536;BME280;6334;48.696;2.114;2023-06-22T09:48:50;99890.02;;;19.62;79.43
12536;BME280;6334;48.696;2.114;2023-06-22T09:51:21;99896.09;;;19.87;78.68
12536;BME280;6334;48.696;2.114;2023-06-22T09:53:51;99894.20;;;19.63;78.96
12536;BME280;6334;48.696;2.114;2023-06-22T09:56:21;99894.22;;;19.75;79.01
12536;BME280;6334;48.696;2.114;2023-06-22T09:58:52;99886.76;;;19.48;79.78
12536;BME280;6334;48.696;2.114;2023-06-22T10:01:22;99890.47;;;19.82;78.77
12536;BME280;6334;48.696;2.114;2023-06-22T10:03:53;99890.53;;;19.84;79.47
12536;BME280;6334;48.696;2.114;2023-06-22T10:06:23;99884.41;;;19.17;80.54
12536;BME280;6334;48.696;2.114;2023-06-22T10:08:54;99889.72;;;19.61;80.58
12536;BME280;6334;48.696;2.114;2023-06-22T10:11:25;99891.77;;;19.88;79.64
12536;BME280;6334;48.696;2.114;2023-06-22T10:13:55;99886.80;;;19.81;78.75
12536;BME280;6334;48.696;2.114;2023-06-22T10:16:30;99886.00;;;19.70;80.29
12536;BME280;6334;48.696;2.114;2023-06-22T10:18:55;99889.67;;;19.62;80.96
12536;BME280;6334;48.696;2.114;2023-06-22T10:21:25;99904.11;;;19.67;80.50
12536;BME280;6334;48.696;2.114;2023-06-22T10:23:55;99905.18;;;19.99;79.36
12536;BME280;6334;48.696;2.114;2023-06-22T10:26:25;99906.90;;;19.39;80.49
12536;BME280;6334;48.696;2.114;2023-06-22T10:28:56;99910.78;;;19.85;80.47
12536;BME280;6334;48.696;2.114;2023-06-22T10:31:25;99905.92;;;20.01;79.72
12536;BME280;6334;48.696;2.114;2023-06-22T10:33:56;99919.38;;;19.96;80.48
12536;BME280;6334;48.696;2.114;2023-06-22T10:36:26;99918.36;;;20.12;78.02
12536;BME280;6334;48.696;2.114;2023-06-22T10:38:57;99918.41;;;20.44;77.58
12536;BME280;6334;48.696;2.114;2023-06-22T10:41:27;99918.74;;;20.44;78.72
12536;BME280;6334;48.696;2.114;2023-06-22T10:43:58;99922.23;;;20.26;78.80
12536;BME280;6334;48.696;2.114;2023-06-22T10:46:27;99925.08;;;20.05;79.00
12536;BME280;6334;48.696;2.114;2023-06-22T10:48:58;99934.69;;;20.33;78.77
12536;BME280;6334;48.696;2.114;2023-06-22T10:51:28;99936.28;;;20.15;79.41
12536;BME280;6334;48.696;2.114;2023-06-22T10:53:59;99938.69;;;20.12;79.81
12536;BME280;6334;48.696;2.114;2023-06-22T10:56:28;99940.80;;;20.24;79.51
12536;BME280;6334;48.696;2.114;2023-06-22T10:58:58;99950.36;;;20.52;77.98
12536;BME280;6334;48.696;2.114;2023-06-22T11:01:28;99956.50;;;20.49;78.27
12536;BME280;6334;48.696;2.114;2023-06-22T11:03:59;99969.44;;;20.50;78.30
12536;BME280;6334;48.696;2.114;2023-06-22T11:06:29;99968.45;;;20.63;78.91
12536;BME280;6334;48.696;2.114;2023-06-22T11:09:00;99962.54;;;20.93;77.83
12536;BME280;6334;48.696;2.114;2023-06-22T11:11:30;99948.15;;;20.74;77.61
12536;BME280;6334;48.696;2.114;2023-06-22T11:14:01;99950.49;;;20.58;78.73
12536;BME280;6334;48.696;2.114;2023-06-22T11:16:30;99955.44;;;20.45;78.97
12536;BME280;6334;48.696;2.114;2023-06-22T11:19:00;99954.41;;;20.90;76.71
12536;BME280;6334;48.696;2.114;2023-06-22T11:21:30;99961.41;;;20.74;77.53
12536;BME280;6334;48.696;2.114;2023-06-22T11:24:00;99960.34;;;20.71;76.43
12536;BME280;6334;48.696;2.114;2023-06-22T11:26:31;99963.31;;;20.81;76.26
12536;BME280;6334;48.696;2.114;2023-06-22T11:29:01;99971.42;;;20.86;75.93
12536;BME280;6334;48.696;2.114;2023-06-22T11:31:32;99970.32;;;20.71;75.65
12536;BME280;6334;48.696;2.114;2023-06-22T11:34:02;99971.91;;;21.06;75.46
12536;BME280;6334;48.696;2.114;2023-06-22T11:36:32;99976.69;;;21.39;75.11
12536;BME280;6334;48.696;2.114;2023-06-22T11:39:02;99979.30;;;21.13;76.32
12536;BME280;6334;48.696;2.114;2023-06-22T11:41:32;99975.77;;;20.74;76.99
12536;BME280;6334;48.696;2.114;2023-06-22T11:44:03;99981.28;;;21.36;75.49
12536;BME280;6334;48.696;2.114;2023-06-22T11:46:32;99978.81;;;21.53;75.98
12536;BME280;6334;48.696;2.114;2023-06-22T11:49:02;99976.05;;;21.35;76.43
12536;BME280;6334;48.696;2.114;2023-06-22T11:51:32;99974.16;;;21.51;75.34
12536;BME280;6334;48.696;2.114;2023-06-22T11:54:03;99981.09;;;21.45;76.13
12536;BME280;6334;48.696;2.114;2023-06-22T11:56:32;99983.42;;;21.32;76.06
12536;BME280;6334;48.696;2.114;2023-06-22T11:59:02;99991.26;;;21.06;75.65
12536;BME280;6334;48.696;2.114;2023-06-22T12:01:32;99987.42;;;21.35;74.07
12536;BME280;6334;48.696;2.114;2023-06-22T12:04:02;99991.08;;;21.72;74.72
12536;BME280;6334;48.696;2.114;2023-06-22T12:06:32;99986.17;;;21.74;72.53
12536;BME280;6334;48.696;2.114;2023-06-22T12:09:01;99988.59;;;21.88;74.68
12536;BME280;6334;48.696;2.114;2023-06-22T12:11:31;99988.09;;;21.93;73.51
12536;BME280;6334;48.696;2.114;2023-06-22T12:14:00;99989.15;;;22.04;73.37
12536;BME280;6334;48.696;2.114;2023-06-22T12:16:31;99990.42;;;22.27;73.55
12536;BME280;6334;48.696;2.114;2023-06-22T12:19:00;99996.64;;;21.68;70.57
12536;BME280;6334;48.696;2.114;2023-06-22T12:21:31;99997.33;;;21.98;72.67
12536;BME280;6334;48.696;2.114;2023-06-22T12:24:00;99998.14;;;21.64;74.00
12536;BME280;6334;48.696;2.114;2023-06-22T12:26:31;99997.80;;;22.12;70.02
12536;BME280;6334;48.696;2.114;2023-06-22T12:29:00;100007.23;;;22.02;72.57
12536;BME280;6334;48.696;2.114;2023-06-22T12:31:31;100002.30;;;21.41;71.02
12536;BME280;6334;48.696;2.114;2023-06-22T12:34:01;100009.83;;;21.54;72.50
12536;BME280;6334;48.696;2.114;2023-06-22T12:36:31;100018.84;;;21.22;72.92
12536;BME280;6334;48.696;2.114;2023-06-22T12:39:01;100026.60;;;21.69;71.09
12536;BME280;6334;48.696;2.114;2023-06-22T12:41:31;100029.73;;;21.46;72.26
12536;BME280;6334;48.696;2.114;2023-06-22T12:44:01;100039.63;;;21.84;72.97
12536;BME280;6334;48.696;2.114;2023-06-22T12:46:31;100038.92;;;21.53;73.40
12536;BME280;6334;48.696;2.114;2023-06-22T12:49:01;100042.70;;;21.39;73.79
12536;BME280;6334;48.696;2.114;2023-06-22T12:51:31;100041.38;;;21.43;73.22
12536;BME280;6334;48.696;2.114;2023-06-22T12:54:01;100042.20;;;21.74;72.10
12536;BME280;6334;48.696;2.114;2023-06-22T12:56:31;100039.17;;;21.51;73.22
12536;BME280;6334;48.696;2.114;2023-06-22T12:59:00;100039.34;;;21.66;72.00
12536;BME280;6334;48.696;2.114;2023-06-22T13:01:30;100041.02;;;21.60;72.47
12536;BME280;6334;48.696;2.114;2023-06-22T13:03:59;100038.52;;;21.64;73.06
12536;BME280;6334;48.696;2.114;2023-06-22T13:06:29;100034.17;;;21.39;71.80
12536;BME280;6334;48.696;2.114;2023-06-22T13:08:58;100032.49;;;21.45;71.35
12536;BME280;6334;48.696;2.114;2023-06-22T13:11:28;100040.26;;;21.72;71.13
12536;BME280;6334;48.696;2.114;2023-06-22T13:13:58;100043.81;;;21.36;73.50
12536;BME280;6334;48.696;2.114;2023-06-22T13:16:27;100047.64;;;21.69;72.00
12536;BME280;6334;48.696;2.114;2023-06-22T13:18:57;100047.70;;;21.55;71.17
12536;BME280;6334;48.696;2.114;2023-06-22T13:21:27;100049.27;;;21.76;69.26
12536;BME280;6334;48.696;2.114;2023-06-22T13:23:58;100049.67;;;21.76;70.45
12536;BME280;6334;48.696;2.114;2023-06-22T13:26:27;100038.84;;;21.79;71.09
12536;BME280;6334;48.696;2.114;2023-06-22T13:28:58;100045.30;;;21.99;70.57
12536;BME280;6334;48.696;2.114;2023-06-22T13:31:27;100046.55;;;21.93;70.29
12536;BME280;6334;48.696;2.114;2023-06-22T13:33:57;100045.23;;;22.24;70.91
12536;BME280;6334;48.696;2.114;2023-06-22T13:36:27;100049.24;;;22.10;71.92
12536;BME280;6334;48.696;2.114;2023-06-22T13:38:56;100051.02;;;22.02;70.85
12536;BME280;6334;48.696;2.114;2023-06-22T13:41:26;100053.03;;;21.99;69.79
12536;BME280;6334;48.696;2.114;2023-06-22T13:43:55;100056.84;;;22.03;70.92
12536;BME280;6334;48.696;2.114;2023-06-22T13:46:25;100055.68;;;22.10;70.80
12536;BME280;6334;48.696;2.114;2023-06-22T13:48:55;100059.17;;;21.64;73.26
12536;BME280;6334;48.696;2.114;2023-06-22T13:51:24;100061.59;;;21.93;73.70
12536;BME280;6334;48.696;2.114;2023-06-22T13:53:54;100062.00;;;21.83;73.11
12536;BME280;6334;48.696;2.114;2023-06-22T13:56:23;100067.61;;;22.07;71.90
12536;BME280;6334;48.696;2.114;2023-06-22T13:58:54;100069.38;;;22.24;71.69
12536;BME280;6334;48.696;2.114;2023-06-22T14:01:24;100071.08;;;22.38;71.82
12536;BME280;6334;48.696;2.114;2023-06-22T14:03:54;100077.67;;;22.31;71.50
12536;BME280;6334;48.696;2.114;2023-06-22T14:06:24;100079.48;;;21.76;76.17